createdAt,value
2022-09-13T00:01:46.157Z,15.23
2022-09-13T00:04:20.103Z,15.23
2022-09-13T00:06:46.954Z,15.23
2022-09-13T00:09:20.667Z,15.24
2022-09-13T00:11:53.761Z,15.24
2022-09-13T00:14:27.139Z,15.22
2022-09-13T00:16:55.965Z,15.21
2022-09-13T00:19:22.815Z,15.24
2022-09-13T00:21:50.386Z,15.24
2022-09-13T00:24:17.643Z,15.22
2022-09-13T00:26:45.414Z,15.20
2022-09-13T00:29:12.160Z,15.20
2022-09-13T00:31:39.540Z,15.18
2022-09-13T00:34:06.472Z,15.17
2022-09-13T00:36:33.428Z,15.15
2022-09-13T00:39:07.548Z,15.15
2022-09-13T00:41:36.240Z,15.14
2022-09-13T00:44:04.623Z,15.13
2022-09-13T00:46:43.081Z,15.10
2022-09-13T00:49:35.606Z,15.09
2022-09-13T00:52:11.718Z,15.09
2022-09-13T00:54:51.611Z,15.09
2022-09-13T00:57:19.199Z,15.09
2022-09-13T00:59:56.810Z,15.09
2022-09-13T01:02:23.690Z,15.10
2022-09-13T01:05:01.700Z,15.11
2022-09-13T01:07:32.621Z,15.10
2022-09-13T01:09:59.986Z,15.10
2022-09-13T01:12:32.677Z,15.10
2022-09-13T01:15:02.750Z,15.11
2022-09-13T01:17:33.445Z,15.12
2022-09-13T01:20:01.421Z,15.11
2022-09-13T01:22:54.739Z,15.12
2022-09-13T01:25:45.913Z,15.11
2022-09-13T01:28:42.148Z,15.08
2022-09-13T01:31:30.025Z,15.06
2022-09-13T01:34:13.974Z,15.05
2022-09-13T01:36:54.929Z,15.06
2022-09-13T01:40:00.724Z,15.06
2022-09-13T01:42:30.820Z,15.06
2022-09-13T01:45:19.483Z,15.09
2022-09-13T01:47:57.694Z,15.12
2022-09-13T01:50:46.866Z,15.09
2022-09-13T01:53:20.374Z,15.08
2022-09-13T01:56:28.796Z,15.08
2022-09-13T01:59:03.532Z,15.07
2022-09-13T02:01:41.445Z,15.07
2022-09-13T02:04:26.628Z,15.03
2022-09-13T02:07:08.823Z,15.01
2022-09-13T02:09:52.779Z,14.98
2022-09-13T02:12:29.454Z,14.94
2022-09-13T02:15:20.837Z,14.92
2022-09-13T02:17:50.799Z,14.88
2022-09-13T02:20:25.779Z,14.85
2022-09-13T02:23:04.762Z,14.84
2022-09-13T02:25:37.679Z,14.80
2022-09-13T02:28:13.919Z,14.78
2022-09-13T02:30:51.735Z,14.77
2022-09-13T02:33:38.291Z,14.76
2022-09-13T02:36:16.848Z,14.77
2022-09-13T02:38:50.884Z,14.74
2022-09-13T02:41:28.051Z,14.69
2022-09-13T02:44:24.389Z,14.65
2022-09-13T02:47:26.874Z,14.59
2022-09-13T02:50:22.899Z,14.53
2022-09-13T02:53:08.796Z,14.46
2022-09-13T02:56:10.869Z,14.42
2022-09-13T02:59:12.329Z,14.39
2022-09-13T03:01:54.903Z,14.34
2022-09-13T03:04:28.961Z,14.32
2022-09-13T03:06:56.826Z,14.31
2022-09-13T03:09:42.002Z,14.32
2022-09-13T03:12:41.411Z,14.33
2022-09-13T03:15:17.778Z,14.36
2022-09-13T03:18:20.875Z,14.41
2022-09-13T03:21:21.513Z,14.46
2022-09-13T03:24:18.983Z,14.51
2022-09-13T03:27:11.534Z,14.56
2022-09-13T03:29:54.554Z,14.61
2022-09-13T03:33:00.013Z,14.66
2022-09-13T03:35:38.891Z,14.70
2022-09-13T03:38:19.908Z,14.74
2022-09-13T03:40:50.043Z,14.77
2022-09-13T03:43:39.018Z,14.81
2022-09-13T03:46:23.174Z,14.83
2022-09-13T03:49:00.498Z,14.87
2022-09-13T03:51:30.909Z,14.92
2022-09-13T03:54:05.089Z,14.95
2022-09-13T03:56:31.872Z,15.00
2022-09-13T03:58:58.652Z,15.04
2022-09-13T04:01:32.821Z,15.09
2022-09-13T04:04:01.553Z,15.12
2022-09-13T04:06:35.402Z,15.16
2022-09-13T04:09:12.566Z,15.18
2022-09-13T04:11:42.038Z,15.20
2022-09-13T04:14:16.309Z,15.23
2022-09-13T04:16:51.050Z,15.25
2022-09-13T04:19:31.932Z,15.30
2022-09-13T04:22:06.063Z,15.35
2022-09-13T04:24:44.963Z,15.42
2022-09-13T04:27:27.102Z,15.52
2022-09-13T04:30:07.162Z,15.58
2022-09-13T04:32:44.047Z,15.65
2022-09-13T04:35:24.523Z,15.73
2022-09-13T04:38:04.268Z,15.82
2022-09-13T04:40:39.412Z,15.92
2022-09-13T04:43:06.258Z,16.00
2022-09-13T04:45:35.084Z,16.05
2022-09-13T04:48:06.113Z,16.07
2022-09-13T04:50:50.277Z,16.06
2022-09-13T04:53:18.459Z,15.92
2022-09-13T04:55:57.290Z,15.85
2022-09-13T04:58:27.426Z,15.83
2022-09-13T05:01:09.036Z,15.86
2022-09-13T05:03:36.822Z,16.01
2022-09-13T05:06:21.351Z,16.07
2022-09-13T05:08:55.696Z,16.11
2022-09-13T05:11:31.114Z,16.14
2022-09-13T05:13:59.092Z,16.17
2022-09-13T05:16:34.227Z,16.23
2022-09-13T05:19:04.962Z,16.12
2022-09-13T05:21:49.317Z,16.11
2022-09-13T05:24:17.466Z,16.11
2022-09-13T05:26:54.266Z,16.12
2022-09-13T05:29:24.694Z,16.13
2022-09-13T05:31:51.947Z,16.14
2022-09-13T05:34:19.712Z,16.27
2022-09-13T05:37:01.301Z,16.40
2022-09-13T05:40:00.260Z,16.43
2022-09-13T05:42:30.492Z,16.45
2022-09-13T05:44:57.473Z,16.45
2022-09-13T05:47:24.818Z,16.49
2022-09-13T05:50:09.224Z,16.55
2022-09-13T05:52:38.374Z,16.57
2022-09-13T05:55:05.565Z,16.55
2022-09-13T05:57:34.104Z,16.50
2022-09-13T06:00:05.456Z,16.45
2022-09-13T06:02:37.005Z,16.42
2022-09-13T06:05:05.493Z,16.45
2022-09-13T06:07:33.160Z,16.50
2022-09-13T06:10:09.292Z,16.60
2022-09-13T06:12:40.255Z,16.67
2022-09-13T06:15:11.639Z,16.73
2022-09-13T06:17:45.126Z,16.80
2022-09-13T06:20:25.159Z,16.85
2022-09-13T06:22:55.930Z,16.89
2022-09-13T06:25:29.394Z,16.91
2022-09-13T06:28:07.094Z,16.92
2022-09-13T06:30:45.098Z,16.94
2022-09-13T06:33:22.505Z,16.96
2022-09-13T06:35:56.202Z,16.94
2022-09-13T06:38:26.732Z,16.93
2022-09-13T06:41:02.495Z,16.95
2022-09-13T06:43:29.538Z,16.99
2022-09-13T06:46:01.703Z,17.04
2022-09-13T06:48:33.372Z,17.09
2022-09-13T06:51:16.765Z,17.14
2022-09-13T06:54:00.227Z,17.21
2022-09-13T06:56:42.212Z,17.30
2022-09-13T06:59:11.736Z,17.43
2022-09-13T07:01:41.505Z,17.54
2022-09-13T07:04:10.767Z,17.61
2022-09-13T07:06:54.486Z,17.66
2022-09-13T07:09:25.028Z,17.83
2022-09-13T07:11:56.371Z,18.05
2022-09-13T07:14:32.969Z,18.28
2022-09-13T07:17:06.428Z,18.52
2022-09-13T07:19:33.270Z,18.71
2022-09-13T07:22:10.250Z,18.94
2022-09-13T07:24:49.746Z,19.04
2022-09-13T07:27:18.433Z,19.22
2022-09-13T07:29:51.975Z,19.37
2022-09-13T07:32:20.260Z,19.54
2022-09-13T07:34:55.304Z,19.88
2022-09-13T07:37:22.974Z,20.11
2022-09-13T07:39:49.756Z,20.22
2022-09-13T07:42:30.401Z,20.25
2022-09-13T07:44:58.681Z,20.23
2022-09-13T07:47:40.473Z,20.22
2022-09-13T07:50:09.412Z,20.15
2022-09-13T07:52:39.527Z,20.10
2022-09-13T07:55:14.051Z,20.06
2022-09-13T07:57:41.133Z,20.06
2022-09-13T08:00:11.015Z,20.05
2022-09-13T08:02:39.795Z,20.05
2022-09-13T08:05:07.484Z,20.09
2022-09-13T08:07:34.410Z,20.19
2022-09-13T08:10:01.172Z,20.37
2022-09-13T08:12:28.207Z,20.52
2022-09-13T08:14:58.538Z,20.57
2022-09-13T08:17:25.358Z,20.53
2022-09-13T08:19:52.435Z,20.50
2022-09-13T08:22:29.425Z,20.56
2022-09-13T08:24:57.827Z,20.70
2022-09-13T08:27:24.758Z,20.80
2022-09-13T08:29:51.594Z,20.87
2022-09-13T08:32:18.490Z,20.85
2022-09-13T08:34:49.120Z,20.85
2022-09-13T08:37:15.996Z,20.87
2022-09-13T08:39:43.160Z,21.01
2022-09-13T08:42:44.286Z,21.15
2022-09-13T08:45:11.299Z,21.10
2022-09-13T08:47:48.755Z,20.85
2022-09-13T08:50:21.345Z,20.65
2022-09-13T08:53:03.460Z,20.77
2022-09-13T08:55:47.279Z,20.92
2022-09-13T08:58:35.946Z,21.02
2022-09-13T09:01:17.421Z,21.06
2022-09-13T09:03:46.946Z,21.10
2022-09-13T09:06:18.861Z,21.27
2022-09-13T09:08:50.011Z,21.41
2022-09-13T09:11:28.595Z,21.48
2022-09-13T09:14:02.906Z,21.54
2022-09-13T09:16:33.839Z,21.55
2022-09-13T09:19:10.450Z,21.55
2022-09-13T09:21:38.008Z,21.66
2022-09-13T09:24:05.001Z,21.84
2022-09-13T09:26:31.847Z,21.95
2022-09-13T09:29:10.737Z,21.96
2022-09-13T09:31:59.332Z,21.96
2022-09-13T09:34:51.599Z,22.17
2022-09-13T09:37:27.069Z,22.45
2022-09-13T09:40:13.770Z,22.52
2022-09-13T09:42:48.424Z,22.40
2022-09-13T09:45:30.902Z,22.33
2022-09-13T09:48:04.951Z,22.35
2022-09-13T09:50:39.735Z,22.32
2022-09-13T09:53:14.588Z,22.32
2022-09-13T09:55:45.833Z,22.38
2022-09-13T09:58:17.195Z,22.49
2022-09-13T10:01:02.331Z,22.59
2022-09-13T10:03:30.142Z,22.69
2022-09-13T10:06:14.946Z,22.69
2022-09-13T10:08:42.631Z,22.56
2022-09-13T10:11:09.706Z,22.40
2022-09-13T10:13:38.897Z,22.18
2022-09-13T10:16:08.172Z,21.93
2022-09-13T10:18:46.369Z,21.73
2022-09-13T10:21:24.617Z,21.49
2022-09-13T10:24:24.375Z,21.21
2022-09-13T10:27:05.590Z,20.84
2022-09-13T10:29:40.712Z,20.45
2022-09-13T10:32:19.646Z,20.27
2022-09-13T10:35:00.149Z,20.19
2022-09-13T10:37:38.691Z,20.25
2022-09-13T10:40:29.735Z,20.26
2022-09-13T10:43:05.286Z,20.34
2022-09-13T10:45:35.941Z,20.42
2022-09-13T10:48:27.305Z,20.53
2022-09-13T10:51:07.574Z,20.66
2022-09-13T10:53:42.742Z,20.74
2022-09-13T10:56:22.774Z,20.81
2022-09-13T10:58:51.340Z,20.96
2022-09-13T11:02:03.115Z,21.23
2022-09-13T11:04:52.781Z,21.45
2022-09-13T11:07:45.926Z,21.49
2022-09-13T11:10:19.005Z,21.50
2022-09-13T11:13:17.878Z,21.74
2022-09-13T11:16:09.319Z,21.94
2022-09-13T11:18:44.946Z,21.97
2022-09-13T11:21:43.861Z,21.90
2022-09-13T11:24:26.495Z,21.86
2022-09-13T11:27:41.867Z,21.78
2022-09-13T11:30:30.421Z,21.53
2022-09-13T11:33:10.249Z,21.21
2022-09-13T11:35:52.830Z,20.88
2022-09-13T11:38:38.737Z,20.73
2022-09-13T11:41:40.974Z,20.73
2022-09-13T11:44:18.866Z,20.79
2022-09-13T11:47:09.042Z,20.77
2022-09-13T11:50:14.573Z,20.66
2022-09-13T11:53:06.993Z,20.50
2022-09-13T11:55:34.224Z,20.35
2022-09-13T11:58:25.954Z,20.30
2022-09-13T12:00:57.653Z,20.43
2022-09-13T12:03:40.033Z,20.62
2022-09-13T12:06:20.020Z,20.77
2022-09-13T12:08:58.746Z,20.79
2022-09-13T12:11:42.826Z,20.68
2022-09-13T12:14:18.456Z,20.50
2022-09-13T12:16:54.828Z,20.31
2022-09-13T12:19:32.394Z,20.07
2022-09-13T12:22:01.511Z,19.89
2022-09-13T12:24:38.061Z,19.76
2022-09-13T12:27:34.404Z,19.63
2022-09-13T12:30:19.652Z,19.54
2022-09-13T12:32:48.027Z,19.47
2022-09-13T12:35:35.335Z,19.42
2022-09-13T12:38:11.143Z,19.38
2022-09-13T12:40:58.811Z,19.35
2022-09-13T12:43:36.012Z,19.34
2022-09-13T12:46:41.121Z,19.31
2022-09-13T12:49:32.869Z,19.29
2022-09-13T12:52:15.884Z,19.23
2022-09-13T12:54:59.512Z,19.12
2022-09-13T12:57:30.887Z,18.92
2022-09-13T12:59:57.658Z,18.79
2022-09-13T13:02:35.263Z,18.64
2022-09-13T13:05:20.595Z,18.52
2022-09-13T13:07:52.721Z,18.48
2022-09-13T13:10:46.127Z,18.42
2022-09-13T13:13:15.083Z,18.36
2022-09-13T13:15:47.791Z,18.33
2022-09-13T13:18:24.787Z,18.30
2022-09-13T13:20:56.202Z,18.26
2022-09-13T13:23:31.174Z,18.22
2022-09-13T13:26:12.041Z,18.20
2022-09-13T13:28:50.758Z,18.14
2022-09-13T13:32:08.717Z,18.10
2022-09-13T13:34:41.735Z,18.14
2022-09-13T13:37:21.928Z,18.27
2022-09-13T13:40:25.859Z,18.31
2022-09-13T13:43:15.897Z,18.30
2022-09-13T13:45:57.186Z,18.28
2022-09-13T13:48:46.175Z,18.30
2022-09-13T13:51:27.191Z,18.30
2022-09-13T13:54:25.413Z,18.32
2022-09-13T13:56:52.143Z,18.33
2022-09-13T13:59:27.433Z,18.38
2022-09-13T14:01:59.602Z,18.44
2022-09-13T14:04:55.658Z,18.50
2022-09-13T14:07:50.905Z,18.57
2022-09-13T14:10:32.006Z,18.67
2022-09-13T14:13:28.166Z,18.70
2022-09-13T14:16:08.453Z,18.71
2022-09-13T14:18:54.050Z,18.74
2022-09-13T14:21:27.210Z,18.78
2022-09-13T14:24:36.071Z,18.79
2022-09-13T14:27:10.120Z,18.80
2022-09-13T14:29:37.091Z,18.79
2022-09-13T14:32:21.239Z,18.78
2022-09-13T14:34:57.050Z,18.78
2022-09-13T14:37:29.970Z,18.76
2022-09-13T14:40:16.633Z,18.73
2022-09-13T14:42:51.541Z,18.73
2022-09-13T14:45:40.259Z,18.71
2022-09-13T14:48:12.463Z,18.70
2022-09-13T14:50:57.179Z,18.68
2022-09-13T14:53:28.735Z,18.64
2022-09-13T14:56:04.143Z,18.60
2022-09-13T14:59:00.306Z,18.55
2022-09-13T15:01:43.135Z,18.53
2022-09-13T15:04:20.280Z,18.54
2022-09-13T15:06:48.672Z,18.58
2022-09-13T15:09:27.344Z,18.61
2022-09-13T15:12:01.401Z,18.61
2022-09-13T15:14:39.311Z,18.63
2022-09-13T15:17:06.065Z,18.63
2022-09-13T15:19:55.304Z,18.63
2022-09-13T15:22:30.838Z,18.61
2022-09-13T15:25:00.531Z,18.57
2022-09-13T15:27:29.477Z,18.54
2022-09-13T15:30:04.131Z,18.55
2022-09-13T15:32:51.216Z,18.53
2022-09-13T15:35:37.442Z,18.54
2022-09-13T15:38:27.937Z,18.52
2022-09-13T15:41:16.199Z,18.49
2022-09-13T15:43:57.440Z,18.43
2022-09-13T15:46:26.121Z,18.39
2022-09-13T15:48:59.070Z,18.35
2022-09-13T15:51:25.972Z,18.32
2022-09-13T15:53:54.911Z,18.31
2022-09-13T15:56:33.467Z,18.25
2022-09-13T15:59:00.379Z,18.24
2022-09-13T16:01:30.411Z,18.24
2022-09-13T16:04:06.257Z,18.23
2022-09-13T16:06:33.321Z,18.21
2022-09-13T16:09:26.411Z,18.19
2022-09-13T16:11:59.973Z,18.18
2022-09-13T16:14:37.363Z,18.14
2022-09-13T16:17:19.347Z,18.10
2022-09-13T16:19:53.705Z,18.03
2022-09-13T16:22:28.023Z,18.01
2022-09-13T16:25:12.431Z,17.98
2022-09-13T16:27:45.048Z,17.94
2022-09-13T16:30:22.967Z,17.94
2022-09-13T16:32:49.988Z,17.94
2022-09-13T16:35:19.834Z,17.93
2022-09-13T16:37:51.453Z,17.94
2022-09-13T16:40:20.797Z,17.94
2022-09-13T16:43:01.396Z,17.93
2022-09-13T16:45:29.367Z,17.92
2022-09-13T16:48:00.064Z,17.90
2022-09-13T16:50:34.336Z,17.89
2022-09-13T16:53:02.693Z,17.87
2022-09-13T16:55:33.489Z,17.88
2022-09-13T16:58:00.853Z,17.88
2022-09-13T17:00:31.082Z,17.90
2022-09-13T17:03:05.159Z,17.89
2022-09-13T17:05:40.451Z,17.86
2022-09-13T17:08:08.700Z,17.82
2022-09-13T17:10:44.529Z,17.79
2022-09-13T17:13:14.540Z,17.77
2022-09-13T17:15:48.221Z,17.74
2022-09-13T17:18:22.179Z,17.71
2022-09-13T17:21:05.349Z,17.67
2022-09-13T17:23:33.570Z,17.67
2022-09-13T17:26:12.562Z,17.68
2022-09-13T17:28:46.030Z,17.70
2022-09-13T17:31:21.115Z,17.71
2022-09-13T17:33:48.546Z,17.71
2022-09-13T17:36:32.525Z,17.70
2022-09-13T17:39:06.190Z,17.69
2022-09-13T17:41:37.497Z,17.70
2022-09-13T17:44:04.933Z,17.69
2022-09-13T17:46:52.598Z,17.68
2022-09-13T17:49:21.571Z,17.67
2022-09-13T17:52:05.510Z,17.66
2022-09-13T17:54:35.531Z,17.63
2022-09-13T17:57:20.595Z,17.61
2022-09-13T17:59:55.104Z,17.57
2022-09-13T18:02:28.487Z,17.53
2022-09-13T18:05:05.380Z,17.50
2022-09-13T18:07:42.492Z,17.46
2022-09-13T18:10:42.717Z,17.41
2022-09-13T18:13:12.135Z,17.34
2022-09-13T18:15:39.253Z,17.30
2022-09-13T18:18:14.608Z,17.27
2022-09-13T18:20:53.018Z,17.24
2022-09-13T18:23:32.608Z,17.23
2022-09-13T18:26:13.582Z,17.24
2022-09-13T18:28:47.789Z,17.27
2022-09-13T18:31:24.678Z,17.29
2022-09-13T18:34:04.460Z,17.32
2022-09-13T18:36:41.570Z,17.35
2022-09-13T18:39:10.163Z,17.36
2022-09-13T18:41:47.595Z,17.37
2022-09-13T18:44:21.648Z,17.38
2022-09-13T18:46:57.513Z,17.39
2022-09-13T18:49:25.659Z,17.42
2022-09-13T18:51:56.076Z,17.42
2022-09-13T18:54:36.142Z,17.41
2022-09-13T18:57:03.221Z,17.43
2022-09-13T18:59:37.605Z,17.43
2022-09-13T19:02:10.430Z,17.43
2022-09-13T19:04:44.171Z,17.43
2022-09-13T19:07:26.705Z,17.44
2022-09-13T19:10:06.668Z,17.44
2022-09-13T19:12:38.605Z,17.44
2022-09-13T19:15:19.256Z,17.45
2022-09-13T19:17:50.533Z,17.45
2022-09-13T19:20:28.408Z,17.46
2022-09-13T19:23:06.639Z,17.48
2022-09-13T19:25:42.248Z,17.49
2022-09-13T19:28:13.158Z,17.49
2022-09-13T19:30:52.761Z,17.50
2022-09-13T19:33:29.735Z,17.51
2022-09-13T19:36:13.340Z,17.53
2022-09-13T19:38:40.355Z,17.52
2022-09-13T19:41:16.539Z,17.50
2022-09-13T19:43:52.628Z,17.49
2022-09-13T19:46:24.416Z,17.48
2022-09-13T19:48:59.958Z,17.46
2022-09-13T19:51:52.316Z,17.43
2022-09-13T19:54:23.357Z,17.41
2022-09-13T19:56:52.555Z,17.37
2022-09-13T19:59:31.622Z,17.34
2022-09-13T20:02:02.479Z,17.32
2022-09-13T20:04:30.565Z,17.29
2022-09-13T20:06:57.488Z,17.25
2022-09-13T20:09:24.527Z,17.24
2022-09-13T20:11:52.536Z,17.22
2022-09-13T20:14:30.409Z,17.20
2022-09-13T20:16:58.174Z,17.17
2022-09-13T20:19:47.565Z,17.12
2022-09-13T20:22:15.554Z,17.09
2022-09-13T20:24:46.277Z,17.07
2022-09-13T20:27:13.750Z,17.05
2022-09-13T20:29:58.687Z,17.04
2022-09-13T20:32:26.776Z,17.02
2022-09-13T20:35:01.198Z,17.00
2022-09-13T20:37:31.823Z,17.00
2022-09-13T20:40:12.900Z,17.00
2022-09-13T20:42:39.827Z,17.00
2022-09-13T20:45:20.683Z,16.96
2022-09-13T20:47:48.929Z,16.92
2022-09-13T20:50:33.901Z,16.88
2022-09-13T20:53:02.815Z,16.87
2022-09-13T20:55:31.390Z,16.86
2022-09-13T20:58:08.984Z,16.85
2022-09-13T21:00:49.552Z,16.83
2022-09-13T21:03:20.284Z,16.83
2022-09-13T21:05:59.833Z,16.83
2022-09-13T21:08:46.911Z,16.83
2022-09-13T21:11:29.369Z,16.78
2022-09-13T21:14:08.841Z,16.73
2022-09-13T21:16:44.017Z,16.67
2022-09-13T21:19:23.905Z,16.62
2022-09-13T21:22:04.480Z,16.55
2022-09-13T21:24:33.268Z,16.50
2022-09-13T21:27:07.902Z,16.45
2022-09-13T21:29:47.851Z,16.38
2022-09-13T21:32:18.383Z,16.31
2022-09-13T21:34:51.375Z,16.23
2022-09-13T21:37:25.187Z,16.14
2022-09-13T21:39:59.566Z,16.04
2022-09-13T21:42:33.729Z,15.95
2022-09-13T21:45:14.094Z,15.87
2022-09-13T21:47:42.177Z,15.81
2022-09-13T21:50:15.986Z,15.73
2022-09-13T21:52:49.687Z,15.68
2022-09-13T21:55:17.971Z,15.64
2022-09-13T21:57:46.152Z,15.57
2022-09-13T22:00:29.894Z,15.51
2022-09-13T22:02:59.198Z,15.45
2022-09-13T22:05:44.063Z,15.38
2022-09-13T22:08:11.704Z,15.30
2022-09-13T22:10:50.969Z,15.26
2022-09-13T22:13:19.076Z,15.19
2022-09-13T22:15:52.830Z,15.15
2022-09-13T22:18:27.803Z,15.10
2022-09-13T22:21:16.867Z,15.04
2022-09-13T22:23:50.780Z,14.99
2022-09-13T22:26:26.980Z,14.96
2022-09-13T22:28:55.952Z,14.93
2022-09-13T22:31:26.074Z,14.91
2022-09-13T22:34:06.953Z,14.89
2022-09-13T22:36:41.003Z,14.85
2022-09-13T22:39:16.928Z,14.83
2022-09-13T22:41:47.151Z,14.83
2022-09-13T22:44:14.000Z,14.80
2022-09-13T22:46:48.122Z,14.77
2022-09-13T22:49:23.262Z,14.72
2022-09-13T22:52:03.667Z,14.69
2022-09-13T22:54:41.018Z,14.67
2022-09-13T22:57:14.420Z,14.63
2022-09-13T22:59:44.341Z,14.62
2022-09-13T23:02:24.600Z,14.58
2022-09-13T23:05:05.162Z,14.57
2022-09-13T23:07:38.464Z,14.55
2022-09-13T23:10:07.355Z,14.54
2022-09-13T23:12:41.039Z,14.52
2022-09-13T23:15:08.419Z,14.51
2022-09-13T23:17:41.510Z,14.50
2022-09-13T23:20:09.686Z,14.49
2022-09-13T23:22:36.531Z,14.46
2022-09-13T23:25:11.053Z,14.42
2022-09-13T23:27:41.175Z,14.38
2022-09-13T23:30:09.277Z,14.35
2022-09-13T23:32:42.540Z,14.33
2022-09-13T23:35:16.553Z,14.32
2022-09-13T23:37:48.129Z,14.35
2022-09-13T23:40:15.147Z,14.38
2022-09-13T23:42:42.100Z,14.35
2022-09-13T23:45:12.425Z,14.36
2022-09-13T23:47:59.239Z,14.36
2022-09-13T23:50:27.413Z,14.34
2022-09-13T23:53:01.017Z,14.32
2022-09-13T23:55:29.396Z,14.30
2022-09-13T23:58:02.898Z,14.28
